createdAt,value
2018-09-06T00:00:50.146Z,18.10
2018-09-06T00:03:18.294Z,18.08
2018-09-06T00:05:46.493Z,18.07
2018-09-06T00:08:14.681Z,18.04
2018-09-06T00:10:42.966Z,18.05
2018-09-06T00:13:11.150Z,18.03
2018-09-06T00:15:39.342Z,18.08
2018-09-06T00:18:07.617Z,18.11
2018-09-06T00:20:35.873Z,18.14
2018-09-06T00:23:04.097Z,18.27
2018-09-06T00:25:32.890Z,18.16
2018-09-06T00:28:01.210Z,18.03
2018-09-06T00:30:29.466Z,18.08
2018-09-06T00:32:57.655Z,18.04
2018-09-06T00:35:25.990Z,18.02
2018-09-06T00:37:54.281Z,18.11
2018-09-06T00:40:22.559Z,17.97
2018-09-06T00:42:50.898Z,17.86
2018-09-06T00:45:19.222Z,17.81
2018-09-06T00:47:47.555Z,17.81
2018-09-06T00:50:20.873Z,17.79
2018-09-06T00:52:51.204Z,17.69
2018-09-06T00:55:19.945Z,17.70
2018-09-06T00:57:48.241Z,17.62
2018-09-06T01:00:16.585Z,17.55
2018-09-06T01:02:45.186Z,17.59
2018-09-06T01:05:13.533Z,17.54
2018-09-06T01:07:41.765Z,17.52
2018-09-06T01:10:09.998Z,17.57
2018-09-06T01:12:38.287Z,17.52
2018-09-06T01:15:06.584Z,17.65
2018-09-06T01:17:34.777Z,17.65
2018-09-06T01:20:03.013Z,17.58
2018-09-06T01:22:31.341Z,17.67
2018-09-06T01:24:59.601Z,17.58
2018-09-06T01:27:27.802Z,17.55
2018-09-06T01:29:56.086Z,17.51
2018-09-06T01:32:24.349Z,17.51
2018-09-06T01:34:52.549Z,17.48
2018-09-06T01:37:20.829Z,17.38
2018-09-06T01:39:49.062Z,17.36
2018-09-06T01:42:17.276Z,17.37
2018-09-06T01:44:45.477Z,17.29
2018-09-06T01:47:13.714Z,17.23
2018-09-06T01:49:41.998Z,17.25
2018-09-06T01:52:10.269Z,17.19
2018-09-06T01:54:38.474Z,17.17
2018-09-06T01:57:06.978Z,17.15
2018-09-06T01:59:36.193Z,17.20
2018-09-06T02:02:04.653Z,17.20
2018-09-06T02:04:35.073Z,17.23
2018-09-06T02:07:03.307Z,17.23
2018-09-06T02:09:31.582Z,17.22
2018-09-06T02:11:59.846Z,17.19
2018-09-06T02:14:28.141Z,17.25
2018-09-06T02:16:56.468Z,17.24
2018-09-06T02:19:24.705Z,17.28
2018-09-06T02:21:53.013Z,17.24
2018-09-06T02:24:21.317Z,17.17
2018-09-06T02:26:49.585Z,17.21
2018-09-06T02:29:17.785Z,17.25
2018-09-06T02:31:46.061Z,17.18
2018-09-06T02:34:14.252Z,17.13
2018-09-06T02:36:42.465Z,17.06
2018-09-06T02:39:11.614Z,17.10
2018-09-06T02:41:39.853Z,17.11
2018-09-06T02:44:08.609Z,17.04
2018-09-06T02:46:36.833Z,17.00
2018-09-06T02:49:05.054Z,17.02
2018-09-06T02:51:33.273Z,16.98
2018-09-06T02:54:01.486Z,16.84
2018-09-06T02:56:29.783Z,16.85
2018-09-06T02:58:58.040Z,16.84
2018-09-06T03:01:26.230Z,16.85
2018-09-06T03:03:54.546Z,16.90
2018-09-06T03:06:22.780Z,16.93
2018-09-06T03:08:51.021Z,16.94
2018-09-06T03:11:55.474Z,16.95
2018-09-06T03:14:23.946Z,16.90
2018-09-06T03:16:52.252Z,16.81
2018-09-06T03:19:20.542Z,16.85
2018-09-06T03:21:48.818Z,16.83
2018-09-06T03:24:17.129Z,16.91
2018-09-06T03:26:45.357Z,16.88
2018-09-06T03:29:13.538Z,16.82
2018-09-06T03:31:41.804Z,16.87
2018-09-06T03:34:10.021Z,16.91
2018-09-06T03:36:38.198Z,16.89
2018-09-06T03:39:07.482Z,16.84
2018-09-06T03:41:35.673Z,16.78
2018-09-06T03:44:04.230Z,16.80
2018-09-06T03:46:32.499Z,16.80
2018-09-06T03:49:00.702Z,16.82
2018-09-06T03:51:29.004Z,16.77
2018-09-06T03:53:57.295Z,16.72
2018-09-06T03:56:25.488Z,16.76
2018-09-06T03:58:53.721Z,16.82
2018-09-06T04:01:21.927Z,16.75
2018-09-06T04:03:50.118Z,16.71
2018-09-06T04:06:18.317Z,16.69
2018-09-06T04:08:46.640Z,16.66
2018-09-06T04:11:14.909Z,16.66
2018-09-06T04:13:43.129Z,16.69
2018-09-06T04:16:11.372Z,16.69
2018-09-06T04:18:39.750Z,16.69
2018-09-06T04:21:07.937Z,16.67
2018-09-06T04:23:36.269Z,16.67
2018-09-06T04:26:04.810Z,16.66
2018-09-06T04:28:33.038Z,16.59
2018-09-06T04:31:01.306Z,16.48
2018-09-06T04:33:29.596Z,16.51
2018-09-06T04:35:57.908Z,16.55
2018-09-06T04:38:26.208Z,16.53
2018-09-06T04:40:54.470Z,16.50
2018-09-06T04:43:22.685Z,16.58
2018-09-06T04:45:50.873Z,16.62
2018-09-06T04:48:19.053Z,16.63
2018-09-06T04:50:47.259Z,16.64
2018-09-06T04:53:15.454Z,16.61
2018-09-06T04:55:43.669Z,16.60
2018-09-06T04:58:18.745Z,16.51
2018-09-06T05:00:47.101Z,16.50
2018-09-06T05:03:15.303Z,16.53
2018-09-06T05:05:43.613Z,16.77
2018-09-06T05:08:11.853Z,16.80
2018-09-06T05:10:40.051Z,16.70
2018-09-06T05:13:08.313Z,16.67
2018-09-06T05:15:36.529Z,16.67
2018-09-06T05:18:05.018Z,16.59
2018-09-06T05:20:33.245Z,16.76
2018-09-06T05:23:01.926Z,16.84
2018-09-06T05:25:30.126Z,16.93
2018-09-06T05:27:58.385Z,16.97
2018-09-06T05:30:26.566Z,17.18
2018-09-06T05:32:54.746Z,17.18
2018-09-06T05:35:22.978Z,17.22
2018-09-06T05:37:51.333Z,17.26
2018-09-06T05:40:19.719Z,17.27
2018-09-06T05:42:47.937Z,17.29
2018-09-06T05:45:16.122Z,17.37
2018-09-06T05:47:47.417Z,17.29
2018-09-06T05:50:15.602Z,17.40
2018-09-06T05:52:43.789Z,17.41
2018-09-06T05:55:11.981Z,17.37
2018-09-06T05:57:40.169Z,17.39
2018-09-06T06:00:13.601Z,17.49
2018-09-06T06:02:41.797Z,17.58
2018-09-06T06:05:10.069Z,17.55
2018-09-06T06:07:49.641Z,17.64
2018-09-06T06:10:17.842Z,17.57
2018-09-06T06:12:46.038Z,17.48
2018-09-06T06:15:14.279Z,17.50
2018-09-06T06:17:42.473Z,17.50
2018-09-06T06:20:10.752Z,17.48
2018-09-06T06:22:38.971Z,17.44
2018-09-06T06:25:07.372Z,17.43
2018-09-06T06:27:35.579Z,17.43
2018-09-06T06:30:03.891Z,17.52
2018-09-06T06:32:32.449Z,17.56
2018-09-06T06:35:00.672Z,17.68
2018-09-06T06:37:28.990Z,17.78
2018-09-06T06:39:57.190Z,17.82
2018-09-06T06:42:25.397Z,17.86
2018-09-06T06:44:54.058Z,17.88
2018-09-06T06:47:22.273Z,17.85
2018-09-06T06:49:50.449Z,17.97
2018-09-06T06:52:18.673Z,18.13
2018-09-06T06:54:46.873Z,18.14
2018-09-06T06:57:15.113Z,18.25
2018-09-06T06:59:43.702Z,18.35
2018-09-06T07:02:11.935Z,18.44
2018-09-06T07:04:40.207Z,18.52
2018-09-06T07:07:08.425Z,18.48
2018-09-06T07:09:36.553Z,18.46
2018-09-06T07:12:04.765Z,18.54
2018-09-06T07:14:33.026Z,18.47
2018-09-06T07:17:01.957Z,18.51
2018-09-06T07:19:30.252Z,18.60
2018-09-06T07:21:58.474Z,18.67
2018-09-06T07:24:26.713Z,18.66
2018-09-06T07:26:54.924Z,18.73
2018-09-06T07:29:23.317Z,18.91
2018-09-06T07:31:51.630Z,19.01
2018-09-06T07:34:19.870Z,19.19
2018-09-06T07:36:48.054Z,19.39
2018-09-06T07:39:16.301Z,19.57
2018-09-06T07:41:44.505Z,19.72
2018-09-06T07:44:12.739Z,19.82
2018-09-06T07:46:40.989Z,19.99
2018-09-06T07:49:09.206Z,20.18
2018-09-06T07:51:37.439Z,20.19
2018-09-06T07:54:05.661Z,20.37
2018-09-06T07:56:33.856Z,20.48
2018-09-06T07:59:02.056Z,20.67
2018-09-06T08:01:30.254Z,20.72
2018-09-06T08:03:58.489Z,20.72
2018-09-06T08:06:26.687Z,20.95
2018-09-06T08:08:54.873Z,21.05
2018-09-06T08:11:23.085Z,21.13
2018-09-06T08:13:51.275Z,21.17
2018-09-06T08:16:19.466Z,21.22
2018-09-06T08:18:47.726Z,21.30
2018-09-06T08:21:15.867Z,21.34
2018-09-06T08:23:44.101Z,21.53
2018-09-06T08:26:12.289Z,21.51
2018-09-06T08:28:40.586Z,21.66
2018-09-06T08:31:08.862Z,21.75
2018-09-06T08:33:37.132Z,21.99
2018-09-06T08:36:05.353Z,21.96
2018-09-06T08:38:33.566Z,22.13
2018-09-06T08:41:01.992Z,22.16
2018-09-06T08:43:30.243Z,22.36
2018-09-06T08:45:58.502Z,22.37
2018-09-06T08:48:26.709Z,22.45
2018-09-06T08:50:54.945Z,22.68
2018-09-06T08:53:23.135Z,22.64
2018-09-06T08:55:51.421Z,22.78
2018-09-06T08:58:19.645Z,22.77
2018-09-06T09:00:53.041Z,23.10
2018-09-06T09:03:21.349Z,23.05
2018-09-06T09:05:49.546Z,23.25
2018-09-06T09:08:17.789Z,23.49
2018-09-06T09:10:45.978Z,23.48
2018-09-06T09:13:14.209Z,23.54
2018-09-06T09:15:42.497Z,23.65
2018-09-06T09:18:10.742Z,23.82
2018-09-06T09:20:38.974Z,23.94
2018-09-06T09:23:07.217Z,24.14
2018-09-06T09:25:35.493Z,24.10
2018-09-06T09:28:03.742Z,24.09
2018-09-06T09:30:32.026Z,24.08
2018-09-06T09:33:00.295Z,24.43
2018-09-06T09:35:28.520Z,24.18
2018-09-06T09:37:57.019Z,24.48
2018-09-06T09:40:25.299Z,24.43
2018-09-06T09:42:53.536Z,24.48
2018-09-06T09:45:21.768Z,24.91
2018-09-06T09:47:50.013Z,25.10
2018-09-06T09:52:45.672Z,25.36
2018-09-06T09:55:13.882Z,25.17
2018-09-06T09:57:42.210Z,25.26
2018-09-06T10:00:10.437Z,25.28
2018-09-06T10:02:44.040Z,25.43
2018-09-06T10:06:15.141Z,25.83
2018-09-06T10:08:48.845Z,26.02
2018-09-06T10:11:17.042Z,25.88
2018-09-06T10:13:45.239Z,26.10
2018-09-06T10:16:13.465Z,26.17
2018-09-06T10:18:41.749Z,26.15
2018-09-06T10:21:09.954Z,26.28
2018-09-06T10:23:38.219Z,25.96
2018-09-06T10:26:06.455Z,26.26
2018-09-06T10:28:34.682Z,26.58
2018-09-06T10:31:03.495Z,26.72
2018-09-06T10:33:31.689Z,26.50
2018-09-06T10:35:59.968Z,26.43
2018-09-06T10:38:28.254Z,26.77
2018-09-06T10:40:56.489Z,26.54
2018-09-06T10:43:24.710Z,26.82
2018-09-06T10:45:52.916Z,26.16
2018-09-06T10:48:21.161Z,25.78
2018-09-06T10:50:49.333Z,25.97
2018-09-06T10:53:17.537Z,25.70
2018-09-06T10:55:45.714Z,25.28
2018-09-06T10:58:13.915Z,25.23
2018-09-06T11:00:42.170Z,24.44
2018-09-06T11:03:10.313Z,23.73
2018-09-06T11:05:38.518Z,22.45
2018-09-06T11:08:06.901Z,21.69
2018-09-06T11:10:34.970Z,20.89
2018-09-06T11:13:03.173Z,20.39
2018-09-06T11:15:31.373Z,19.67
2018-09-06T11:17:59.604Z,18.99
2018-09-06T11:20:27.785Z,18.60
2018-09-06T11:22:55.994Z,16.94
2018-09-06T11:25:24.241Z,16.26
2018-09-06T11:27:52.496Z,15.93
2018-09-06T11:30:20.689Z,16.33
2018-09-06T11:32:48.926Z,16.12
2018-09-06T11:35:17.131Z,16.15
2018-09-06T11:37:45.355Z,16.72
2018-09-06T11:40:13.686Z,16.97
2018-09-06T11:42:41.969Z,17.40
2018-09-06T11:45:10.173Z,17.60
2018-09-06T11:47:38.449Z,17.89
2018-09-06T11:50:06.606Z,18.14
2018-09-06T11:52:34.805Z,18.34
2018-09-06T11:55:03.013Z,18.32
2018-09-06T11:57:31.354Z,18.59
2018-09-06T11:59:59.545Z,18.85
2018-09-06T12:02:27.773Z,18.92
2018-09-06T12:04:56.010Z,18.91
2018-09-06T12:07:24.282Z,19.06
2018-09-06T12:09:52.506Z,19.14
2018-09-06T12:12:20.712Z,19.22
2018-09-06T12:14:48.963Z,19.42
2018-09-06T12:17:17.178Z,19.37
2018-09-06T12:19:45.391Z,19.67
2018-09-06T12:22:13.621Z,20.20
2018-09-06T12:24:42.177Z,20.43
2018-09-06T12:27:10.522Z,20.53
2018-09-06T12:29:38.754Z,20.59
2018-09-06T12:32:07.072Z,20.34
2018-09-06T12:34:35.233Z,20.33
2018-09-06T12:37:03.490Z,20.40
2018-09-06T12:39:31.729Z,20.46
2018-09-06T12:42:00.177Z,20.35
2018-09-06T12:44:28.397Z,20.42
2018-09-06T12:46:56.626Z,20.60
2018-09-06T12:49:24.886Z,20.81
2018-09-06T12:51:53.111Z,20.81
2018-09-06T12:54:21.364Z,21.12
2018-09-06T12:56:49.602Z,20.87
2018-09-06T12:59:17.817Z,20.89
2018-09-06T13:01:46.073Z,20.81
2018-09-06T13:04:14.269Z,20.90
2018-09-06T13:06:42.510Z,21.10
2018-09-06T13:09:10.693Z,21.43
2018-09-06T13:11:39.238Z,21.66
2018-09-06T13:14:07.463Z,21.82
2018-09-06T13:16:35.717Z,21.83
2018-09-06T13:19:04.209Z,21.77
2018-09-06T13:21:32.911Z,21.91
2018-09-06T13:24:01.102Z,22.05
2018-09-06T13:26:29.365Z,21.92
2018-09-06T13:28:57.565Z,22.01
2018-09-06T13:31:25.789Z,22.02
2018-09-06T13:33:53.975Z,21.97
2018-09-06T13:36:22.195Z,22.02
2018-09-06T13:38:50.442Z,22.13
2018-09-06T13:41:18.665Z,22.18
2018-09-06T13:43:46.857Z,22.23
2018-09-06T13:46:15.065Z,22.19
2018-09-06T13:48:43.282Z,22.25
2018-09-06T13:51:11.465Z,22.22
2018-09-06T13:53:39.657Z,22.24
2018-09-06T13:56:07.850Z,22.27
2018-09-06T13:58:36.046Z,22.31
2018-09-06T14:01:04.259Z,22.26
2018-09-06T14:03:32.442Z,22.38
2018-09-06T14:06:00.653Z,22.38
2018-09-06T14:08:28.830Z,22.42
2018-09-06T14:10:57.026Z,22.70
2018-09-06T14:13:25.201Z,22.58
2018-09-06T14:15:53.430Z,22.33
2018-09-06T14:18:21.846Z,22.25
2018-09-06T14:20:50.124Z,22.30
2018-09-06T14:23:18.313Z,22.33
2018-09-06T14:25:46.596Z,22.65
2018-09-06T14:28:14.773Z,22.48
2018-09-06T14:30:43.070Z,22.56
2018-09-06T14:33:11.351Z,22.44
2018-09-06T14:35:39.638Z,22.33
2018-09-06T14:38:08.011Z,22.55
2018-09-06T14:40:36.221Z,22.60
2018-09-06T14:43:04.907Z,22.63
2018-09-06T14:45:33.094Z,22.37
2018-09-06T14:48:01.359Z,21.99
2018-09-06T14:50:29.545Z,21.75
2018-09-06T14:52:57.784Z,21.63
2018-09-06T14:55:26.052Z,21.57
2018-09-06T14:57:54.415Z,21.46
2018-09-06T15:00:22.729Z,21.35
2018-09-06T15:02:51.210Z,21.50
2018-09-06T15:05:21.343Z,21.48
2018-09-06T15:07:49.558Z,21.48
2018-09-06T15:10:17.874Z,21.36
2018-09-06T15:12:46.107Z,21.19
2018-09-06T15:15:14.297Z,21.01
2018-09-06T15:17:42.518Z,21.10
2018-09-06T15:20:10.784Z,21.27
2018-09-06T15:22:39.041Z,21.09
2018-09-06T15:25:07.241Z,21.09
2018-09-06T15:27:35.469Z,20.90
2018-09-06T15:30:03.770Z,20.96
2018-09-06T15:32:31.965Z,21.00
2018-09-06T15:35:00.206Z,21.03
2018-09-06T15:37:28.597Z,21.13
2018-09-06T15:39:56.798Z,20.98
2018-09-06T15:42:25.085Z,21.01
2018-09-06T15:44:53.473Z,20.82
2018-09-06T15:47:21.837Z,20.78
2018-09-06T15:49:50.093Z,20.77
2018-09-06T15:52:18.313Z,20.47
2018-09-06T15:54:46.514Z,20.06
2018-09-06T15:57:14.694Z,19.76
2018-09-06T15:59:42.902Z,19.55
2018-09-06T16:02:11.193Z,19.26
2018-09-06T16:04:39.517Z,18.97
2018-09-06T16:07:08.043Z,18.79
2018-09-06T16:09:36.301Z,18.61
2018-09-06T16:12:04.630Z,18.39
2018-09-06T16:14:32.833Z,18.37
2018-09-06T16:17:01.221Z,18.21
2018-09-06T16:19:29.569Z,18.05
2018-09-06T16:21:58.094Z,18.01
2018-09-06T16:24:26.538Z,17.90
2018-09-06T16:26:54.837Z,17.75
2018-09-06T16:29:23.137Z,17.70
2018-09-06T16:31:51.361Z,17.83
2018-09-06T16:34:19.885Z,17.77
2018-09-06T16:36:48.138Z,17.72
2018-09-06T16:39:16.818Z,17.73
2018-09-06T16:41:45.269Z,17.68
2018-09-06T16:44:13.689Z,17.67
2018-09-06T16:46:41.983Z,17.79
2018-09-06T16:49:10.217Z,17.71
2018-09-06T16:51:38.497Z,17.72
2018-09-06T16:54:06.773Z,17.63
2018-09-06T16:56:35.067Z,17.38
2018-09-06T16:59:03.474Z,17.68
2018-09-06T17:01:31.762Z,17.61
2018-09-06T17:04:00.110Z,17.59
2018-09-06T17:06:28.330Z,17.76
2018-09-06T17:08:56.513Z,17.84
2018-09-06T17:11:24.973Z,17.90
2018-09-06T17:13:53.194Z,17.83
2018-09-06T17:16:21.431Z,17.96
2018-09-06T17:18:50.174Z,17.91
2018-09-06T17:21:18.446Z,17.88
2018-09-06T17:23:47.045Z,17.82
2018-09-06T17:26:15.443Z,17.85
2018-09-06T17:28:43.737Z,17.73
2018-09-06T17:31:11.974Z,17.84
2018-09-06T17:33:40.306Z,17.85
2018-09-06T17:36:08.501Z,17.79
2018-09-06T17:38:36.856Z,17.75
2018-09-06T17:41:05.401Z,17.72
2018-09-06T17:43:33.751Z,17.77
2018-09-06T17:46:02.051Z,17.84
2018-09-06T17:48:30.466Z,17.78
2018-09-06T17:50:58.888Z,17.81
2018-09-06T17:53:27.258Z,17.73
2018-09-06T17:55:55.506Z,17.71
2018-09-06T17:58:23.761Z,17.56
2018-09-06T18:01:04.818Z,17.49
2018-09-06T18:03:33.095Z,17.45
2018-09-06T18:06:01.332Z,17.30
2018-09-06T18:08:29.862Z,17.47
2018-09-06T18:10:58.173Z,17.54
2018-09-06T18:13:27.124Z,17.61
2018-09-06T18:15:55.441Z,17.55
2018-09-06T18:18:23.713Z,17.38
2018-09-06T18:20:52.159Z,17.33
2018-09-06T18:23:20.402Z,17.45
2018-09-06T18:25:48.737Z,17.38
2018-09-06T18:28:16.961Z,17.42
2018-09-06T18:30:45.168Z,17.26
2018-09-06T18:33:13.590Z,17.18
2018-09-06T18:35:42.035Z,17.22
2018-09-06T18:38:10.317Z,17.30
2018-09-06T18:40:38.867Z,17.28
2018-09-06T18:43:07.910Z,17.23
2018-09-06T18:45:37.190Z,17.26
2018-09-06T18:48:05.968Z,17.28
2018-09-06T18:50:34.824Z,17.38
2018-09-06T18:53:03.166Z,17.37
2018-09-06T18:55:31.820Z,17.50
2018-09-06T18:58:00.141Z,17.52
2018-09-06T19:00:28.628Z,17.54
2018-09-06T19:02:56.822Z,17.42
2018-09-06T19:05:25.070Z,17.45
2018-09-06T19:07:53.445Z,17.43
2018-09-06T19:10:21.721Z,17.44
2018-09-06T19:12:50.124Z,17.42
2018-09-06T19:15:18.417Z,17.46
2018-09-06T19:17:46.766Z,17.42
2018-09-06T19:20:15.102Z,17.44
2018-09-06T19:22:43.383Z,17.53
2018-09-06T19:25:11.694Z,17.53
2018-09-06T19:27:40.081Z,17.49
2018-09-06T19:30:08.937Z,17.49
2018-09-06T19:32:37.350Z,17.48
2018-09-06T19:35:05.735Z,17.49
2018-09-06T19:37:34.121Z,17.49
2018-09-06T19:40:02.441Z,17.47
2018-09-06T19:42:30.632Z,17.44
2018-09-06T19:44:58.823Z,17.37
2018-09-06T19:47:26.994Z,17.37
2018-09-06T19:49:55.305Z,17.37
2018-09-06T19:52:23.508Z,17.46
2018-09-06T19:54:53.775Z,17.52
2018-09-06T19:57:23.442Z,17.62
2018-09-06T19:59:51.893Z,17.56
2018-09-06T20:02:20.097Z,17.45
2018-09-06T20:04:48.261Z,17.47
2018-09-06T20:07:16.762Z,17.71
2018-09-06T20:09:45.010Z,17.76
2018-09-06T20:12:13.509Z,17.59
2018-09-06T20:14:41.746Z,17.53
2018-09-06T20:17:10.171Z,17.62
2018-09-06T20:19:38.441Z,17.76
2018-09-06T20:22:08.361Z,17.61
2018-09-06T20:24:36.565Z,17.72
2018-09-06T20:27:04.892Z,17.68
2018-09-06T20:29:33.138Z,17.71
2018-09-06T20:32:01.366Z,17.63
2018-09-06T20:34:29.894Z,17.67
2018-09-06T20:36:58.101Z,17.70
2018-09-06T20:39:26.377Z,17.63
2018-09-06T20:41:54.666Z,17.53
2018-09-06T20:44:23.545Z,17.57
2018-09-06T20:46:51.865Z,17.75
2018-09-06T20:49:20.170Z,17.70
2018-09-06T20:51:48.350Z,17.76
2018-09-06T20:54:16.637Z,17.75
2018-09-06T20:56:44.818Z,17.72
2018-09-06T20:59:13.149Z,17.73
2018-09-06T21:01:41.406Z,17.61
2018-09-06T21:04:09.605Z,17.63
2018-09-06T21:06:37.857Z,17.54
2018-09-06T21:09:07.162Z,17.49
2018-09-06T21:11:35.477Z,17.49
2018-09-06T21:14:03.915Z,17.50
2018-09-06T21:16:32.334Z,17.56
2018-09-06T21:19:00.522Z,17.36
2018-09-06T21:21:28.798Z,17.33
2018-09-06T21:23:57.013Z,17.22
2018-09-06T21:26:25.357Z,17.07
2018-09-06T21:28:53.589Z,17.11
2018-09-06T21:31:21.921Z,16.98
2018-09-06T21:33:50.173Z,17.09
2018-09-06T21:36:18.488Z,17.20
2018-09-06T21:38:46.838Z,17.38
2018-09-06T21:41:15.217Z,17.23
2018-09-06T21:43:43.425Z,17.08
2018-09-06T21:46:11.705Z,17.13
2018-09-06T21:48:40.077Z,17.41
2018-09-06T21:51:08.324Z,17.37
2018-09-06T21:53:36.785Z,17.53
2018-09-06T21:56:05.081Z,17.50
2018-09-06T21:58:33.277Z,17.40
2018-09-06T22:01:01.543Z,17.27
2018-09-06T22:03:34.981Z,17.11
2018-09-06T22:06:03.285Z,17.17
2018-09-06T22:08:31.513Z,17.19
2018-09-06T22:10:59.713Z,17.13
2018-09-06T22:13:27.902Z,17.17
2018-09-06T22:15:56.093Z,17.29
2018-09-06T22:18:24.302Z,17.28
2018-09-06T22:20:52.597Z,17.29
2018-09-06T22:23:20.865Z,17.24
2018-09-06T22:25:49.153Z,17.21
2018-09-06T22:28:17.433Z,17.25
2018-09-06T22:30:45.618Z,17.20
2018-09-06T22:33:13.814Z,17.20
2018-09-06T22:35:41.978Z,17.23
2018-09-06T22:38:10.187Z,17.11
2018-09-06T22:40:38.365Z,17.16
2018-09-06T22:43:06.552Z,17.07
2018-09-06T22:45:34.774Z,17.12
2018-09-06T22:48:02.959Z,17.21
2018-09-06T22:50:31.225Z,17.21
2018-09-06T22:52:59.505Z,17.14
2018-09-06T22:55:27.826Z,17.13
2018-09-06T22:57:56.091Z,17.17
2018-09-06T23:00:28.562Z,17.13
2018-09-06T23:03:02.134Z,17.08
2018-09-06T23:05:30.377Z,17.20
2018-09-06T23:07:58.650Z,17.03
2018-09-06T23:10:26.841Z,17.05
2018-09-06T23:12:55.037Z,17.13
2018-09-06T23:15:23.238Z,17.13
2018-09-06T23:17:51.425Z,17.06
2018-09-06T23:20:19.685Z,16.93
2018-09-06T23:22:47.881Z,17.00
2018-09-06T23:25:16.163Z,16.95
2018-09-06T23:27:44.371Z,16.91
2018-09-06T23:30:12.646Z,16.79
2018-09-06T23:32:40.961Z,16.89
2018-09-06T23:35:09.224Z,16.77
2018-09-06T23:37:37.514Z,16.55
2018-09-06T23:40:05.809Z,16.71
2018-09-06T23:42:34.110Z,16.58
2018-09-06T23:45:02.405Z,16.57
2018-09-06T23:47:30.653Z,16.52
2018-09-06T23:49:58.854Z,16.45
2018-09-06T23:52:27.025Z,16.47
2018-09-06T23:54:55.209Z,16.46
2018-09-06T23:57:23.405Z,16.51
2018-09-06T23:59:51.697Z,16.63
